Time;durP1;ratioP1;P1;durP2;ratioP2;P2;SDS_P1;SDS_P2;PMS_P1;PMS_P2;Temp;Humidity;BMP_temperature;BMP_pressure;BME280_temperature;BME280_humidity;BME280_pressure;Samples;Min_cycle;Max_cycle;Signal;HPM_P1;HPM_P2
2021/10/17 00:00:35;;;;;;;26.50;6.18;;;10.20;99.90;;;;;;5108775;28;20154;-78
2021/10/17 00:03:01;;;;;;;21.60;6.28;;;10.20;99.90;;;;;;5102413;28;20035;-78
2021/10/17 00:05:30;;;;;;;20.88;5.28;;;10.20;99.90;;;;;;5090658;28;20043;-79
2021/10/17 00:07:56;;;;;;;16.58;6.15;;;10.20;99.90;;;;;;5105306;28;20050;-78
2021/10/17 00:10:26;;;;;;;13.60;5.63;;;10.20;99.90;;;;;;5096036;28;20127;-78
2021/10/17 00:12:54;;;;;;;20.40;5.40;;;10.20;99.90;;;;;;5102224;28;20090;-79
2021/10/17 00:15:21;;;;;;;23.80;6.18;;;10.20;99.90;;;;;;5107147;28;20072;-78
2021/10/17 00:17:48;;;;;;;19.02;5.85;;;10.20;99.90;;;;;;5104457;28;20043;-78
2021/10/17 00:20:17;;;;;;;30.67;6.10;;;10.20;99.90;;;;;;5094514;28;20038;-78
2021/10/17 00:22:43;;;;;;;16.02;5.80;;;10.20;99.90;;;;;;5106998;28;20051;-78
2021/10/17 00:25:10;;;;;;;22.15;6.45;;;10.20;99.90;;;;;;5104626;28;20090;-77
2021/10/17 00:27:36;;;;;;;17.38;5.90;;;10.20;99.90;;;;;;5107178;28;20503;-77
2021/10/17 00:30:04;;;;;;;23.27;5.30;;;10.20;99.90;;;;;;5087383;28;20047;-79
2021/10/17 00:32:30;;;;;;;18.50;5.85;;;10.20;99.90;;;;;;5106397;28;20043;-78
2021/10/17 00:34:57;;;;;;;25.17;6.00;;;10.20;99.90;;;;;;5102512;28;20386;-78
2021/10/17 00:37:26;;;;;;;22.77;6.05;;;10.20;99.90;;;;;;5094487;28;20401;-78
2021/10/17 00:39:52;;;;;;;26.95;6.15;;;10.20;99.90;;;;;;5105013;28;20460;-78
2021/10/17 00:42:18;;;;;;;17.05;7.00;;;10.20;99.90;;;;;;5091866;28;20130;-78
2021/10/17 00:44:44;;;;;;;21.67;6.68;;;10.20;99.90;;;;;;5099334;28;20104;-78
2021/10/17 00:47:10;;;;;;;20.20;6.20;;;10.20;99.90;;;;;;5105024;28;20447;-78
2021/10/17 00:49:35;;;;;;;20.83;7.38;;;10.20;99.90;;;;;;5106641;28;20047;-78
2021/10/17 00:52:02;;;;;;;19.10;7.03;;;10.20;99.90;;;;;;5103397;28;20414;-78
2021/10/17 00:54:28;;;;;;;19.98;6.45;;;10.20;99.90;;;;;;5089066;28;20500;-78
2021/10/17 00:56:54;;;;;;;22.13;6.30;;;10.20;99.90;;;;;;5105577;28;20048;-78
2021/10/17 00:59:19;;;;;;;17.27;6.43;;;10.20;99.90;;;;;;5104967;28;20094;-78
2021/10/17 01:01:45;;;;;;;17.52;6.32;;;10.20;99.90;;;;;;5105897;28;20055;-78
2021/10/17 01:04:11;;;;;;;19.85;6.20;;;10.10;99.90;;;;;;5104604;28;20075;-78
2021/10/17 01:06:37;;;;;;;20.00;6.70;;;10.10;99.90;;;;;;5106146;28;20039;-78
2021/10/17 01:09:05;;;;;;;23.42;8.27;;;10.20;99.90;;;;;;5102804;28;20055;-78
2021/10/17 01:11:47;;;;;;;20.55;6.47;;;10.10;99.90;;;;;;5094548;28;20059;-78
2021/10/17 01:14:19;;;;;;;30.98;8.52;;;10.10;99.90;;;;;;5105468;28;20481;-78
2021/10/17 01:16:46;;;;;;;16.00;6.28;;;10.10;99.90;;;;;;5105320;28;20044;-78
2021/10/17 01:19:12;;;;;;;15.30;5.60;;;10.10;99.90;;;;;;5105521;28;20055;-78
2021/10/17 01:21:39;;;;;;;23.23;6.65;;;10.10;99.90;;;;;;5102353;28;20291;-78
2021/10/17 01:24:06;;;;;;;18.92;6.25;;;10.10;99.90;;;;;;5105326;28;20134;-78
2021/10/17 01:26:33;;;;;;;23.15;8.00;;;10.10;99.90;;;;;;5104705;28;20142;-77
2021/10/17 01:28:59;;;;;;;18.30;6.75;;;10.00;99.90;;;;;;5105230;28;20271;-78
2021/10/17 01:31:53;;;;;;;26.58;7.85;;;10.00;99.90;;;;;;5105730;28;20500;-78
2021/10/17 01:34:21;;;;;;;24.77;6.70;;;10.00;99.90;;;;;;5102583;28;20055;-78
2021/10/17 01:36:47;;;;;;;16.08;6.10;;;10.00;99.90;;;;;;5122564;27;20056;-78
2021/10/17 01:39:16;;;;;;;24.23;6.88;;;10.00;99.90;;;;;;5105483;28;20489;-78
2021/10/17 01:41:42;;;;;;;13.98;6.25;;;10.00;99.90;;;;;;5105874;28;20055;-78
2021/10/17 01:44:10;;;;;;;19.55;7.10;;;10.00;99.90;;;;;;5120855;27;20047;-78
2021/10/17 01:46:37;;;;;;;18.73;6.43;;;10.00;99.90;;;;;;5087764;28;20515;-78
2021/10/17 01:49:07;;;;;;;18.92;5.78;;;10.00;99.90;;;;;;5106749;28;20488;-78
2021/10/17 01:51:33;;;;;;;20.67;6.63;;;10.00;99.90;;;;;;5104301;28;20544;-78
2021/10/17 01:54:00;;;;;;;21.30;6.55;;;10.00;99.90;;;;;;5104820;28;20054;-77
2021/10/17 01:56:26;;;;;;;22.55;6.60;;;9.90;99.90;;;;;;5089809;28;20059;-78
2021/10/17 01:58:51;;;;;;;16.52;6.43;;;9.90;99.90;;;;;;5105348;28;20039;-78
2021/10/17 02:01:17;;;;;;;15.90;6.72;;;9.90;99.90;;;;;;5104645;28;20628;-78
2021/10/17 02:03:44;;;;;;;18.17;6.95;;;9.90;99.90;;;;;;5104929;28;20071;-78
2021/10/17 02:06:10;;;;;;;19.73;6.47;;;9.90;99.90;;;;;;5105456;28;20052;-78
2021/10/17 02:08:36;;;;;;;18.08;6.88;;;9.80;99.90;;;;;;5103192;28;20712;-78
2021/10/17 02:11:02;;;;;;;16.83;6.20;;;9.80;99.90;;;;;;5091150;28;20040;-78
2021/10/17 02:13:27;;;;;;;22.27;7.57;;;9.80;99.90;;;;;;5103670;28;20512;-78
2021/10/17 02:15:53;;;;;;;15.40;6.50;;;9.80;99.90;;;;;;5087896;28;20071;-78
2021/10/17 02:18:19;;;;;;;30.95;6.80;;;9.80;99.90;;;;;;5105381;28;20460;-78
2021/10/17 02:20:44;;;;;;;20.00;6.60;;;9.80;99.90;;;;;;5104598;28;20047;-78
2021/10/17 02:23:10;;;;;;;16.38;6.75;;;9.80;99.90;;;;;;5090985;28;20627;-78
2021/10/17 02:25:36;;;;;;;19.50;6.28;;;9.70;99.90;;;;;;5104579;28;20075;-78
2021/10/17 02:28:02;;;;;;;22.10;6.75;;;9.80;99.90;;;;;;5105071;28;20044;-78
2021/10/17 02:30:28;;;;;;;20.90;7.63;;;9.70;99.90;;;;;;5103770;28;20052;-77
2021/10/17 02:32:54;;;;;;;13.93;7.30;;;9.70;99.90;;;;;;5104119;28;20050;-77
2021/10/17 02:35:20;;;;;;;16.20;6.32;;;9.70;99.90;;;;;;5103651;28;20071;-78
2021/10/17 02:37:46;;;;;;;27.83;7.07;;;9.60;99.90;;;;;;5122426;28;20093;-78
2021/10/17 02:40:12;;;;;;;18.05;7.10;;;9.60;99.90;;;;;;5104288;28;20058;-78
2021/10/17 02:42:38;;;;;;;19.00;7.38;;;9.50;99.90;;;;;;5104816;28;20592;-78
2021/10/17 02:45:06;;;;;;;21.63;7.85;;;9.50;99.90;;;;;;5105873;28;20447;-78
2021/10/17 02:47:32;;;;;;;18.80;7.10;;;9.40;99.90;;;;;;5103352;28;20047;-78
2021/10/17 02:49:58;;;;;;;35.97;8.18;;;9.50;99.90;;;;;;5104769;28;20040;-78
2021/10/17 02:52:24;;;;;;;19.80;7.28;;;9.40;99.90;;;;;;5095561;28;20040;-78
2021/10/17 02:54:50;;;;;;;19.45;7.53;;;9.40;99.90;;;;;;5097775;28;20051;-78
2021/10/17 02:57:16;;;;;;;27.60;7.95;;;9.40;99.90;;;;;;5104516;28;20043;-78
2021/10/17 02:59:42;;;;;;;18.65;8.25;;;9.40;99.90;;;;;;5107108;28;20061;-78
2021/10/17 03:02:07;;;;;;;16.65;7.18;;;9.40;99.90;;;;;;5090700;28;20706;-77
2021/10/17 03:04:33;;;;;;;17.23;8.30;;;9.40;99.90;;;;;;5086766;28;20048;-78
2021/10/17 03:06:59;;;;;;;17.33;7.72;;;9.40;99.90;;;;;;5096930;28;20044;-77
2021/10/17 03:09:25;;;;;;;21.55;8.10;;;9.40;99.90;;;;;;5087379;28;20557;-77
2021/10/17 03:11:51;;;;;;;20.33;7.93;;;9.40;99.90;;;;;;5100186;28;20055;-77
2021/10/17 03:14:16;;;;;;;21.42;8.02;;;9.40;99.90;;;;;;5106167;28;20050;-77
2021/10/17 03:16:42;;;;;;;18.67;7.72;;;9.40;99.90;;;;;;5108412;28;20058;-77
2021/10/17 03:19:09;;;;;;;18.35;7.82;;;9.40;99.90;;;;;;5106667;28;20082;-77
2021/10/17 03:21:35;;;;;;;23.35;8.27;;;9.40;99.90;;;;;;5090607;28;20047;-78
2021/10/17 03:24:00;;;;;;;29.52;8.40;;;9.40;99.90;;;;;;5107752;28;20112;-77
2021/10/17 03:26:26;;;;;;;22.77;8.27;;;9.40;99.90;;;;;;5106430;28;20047;-77
2021/10/17 03:28:52;;;;;;;24.60;7.97;;;9.40;99.90;;;;;;5108172;28;20105;-77
2021/10/17 03:31:17;;;;;;;22.98;8.80;;;9.40;99.90;;;;;;5103598;28;20536;-78
2021/10/17 03:33:43;;;;;;;18.08;8.20;;;9.50;99.90;;;;;;5071140;28;20134;-78
2021/10/17 03:36:09;;;;;;;16.13;7.60;;;9.40;99.90;;;;;;5084042;28;20180;-77
2021/10/17 03:38:35;;;;;;;22.70;7.80;;;9.40;99.90;;;;;;5099935;28;20060;-78
2021/10/17 03:41:00;;;;;;;21.20;8.20;;;9.40;99.90;;;;;;5100483;28;20050;-78
2021/10/17 03:43:26;;;;;;;21.80;8.90;;;9.40;99.90;;;;;;5106610;28;20051;-78
2021/10/17 03:45:52;;;;;;;19.27;8.00;;;9.40;99.90;;;;;;5108162;28;20047;-78
2021/10/17 03:48:18;;;;;;;21.17;8.68;;;9.50;99.90;;;;;;5105149;28;20582;-77
2021/10/17 03:50:44;;;;;;;24.38;9.15;;;9.50;99.90;;;;;;5107774;28;20120;-78
2021/10/17 03:53:09;;;;;;;20.98;9.25;;;9.40;99.90;;;;;;5105256;28;20040;-78
2021/10/17 03:55:37;;;;;;;18.00;8.48;;;9.40;99.90;;;;;;5107821;28;20078;-77
2021/10/17 03:58:03;;;;;;;28.10;9.90;;;9.40;99.90;;;;;;5106220;28;20059;-78
2021/10/17 04:00:29;;;;;;;26.02;9.38;;;9.40;99.90;;;;;;5106563;28;20136;-78
2021/10/17 04:02:55;;;;;;;26.48;9.50;;;9.40;99.90;;;;;;5090846;28;20083;-77
2021/10/17 04:05:20;;;;;;;24.20;9.80;;;9.40;99.90;;;;;;5104909;28;20035;-77
2021/10/17 04:07:46;;;;;;;26.55;10.35;;;9.50;99.90;;;;;;5107108;28;20130;-77
2021/10/17 04:10:12;;;;;;;27.48;9.95;;;9.50;99.90;;;;;;5070948;28;20509;-78
2021/10/17 04:12:38;;;;;;;20.27;9.82;;;9.40;99.90;;;;;;5107592;28;20428;-78
2021/10/17 04:15:04;;;;;;;20.85;10.52;;;9.40;99.90;;;;;;5105545;28;20051;-77
2021/10/17 04:17:30;;;;;;;30.80;11.25;;;9.40;99.90;;;;;;5106862;28;20598;-77
2021/10/17 04:19:55;;;;;;;23.25;9.85;;;9.40;99.90;;;;;;5089495;28;20043;-77
2021/10/17 04:22:21;;;;;;;24.77;10.30;;;9.40;99.90;;;;;;5105391;28;20043;-77
2021/10/17 04:24:47;;;;;;;22.08;10.38;;;9.50;99.90;;;;;;5107313;28;20047;-77
2021/10/17 04:27:13;;;;;;;25.90;10.38;;;9.50;99.90;;;;;;5092855;28;20048;-77
2021/10/17 04:29:39;;;;;;;23.55;9.98;;;9.50;99.90;;;;;;5104771;28;20081;-78
2021/10/17 04:32:06;;;;;;;26.90;10.60;;;9.50;99.90;;;;;;5105945;28;20051;-77
2021/10/17 04:34:32;;;;;;;26.55;11.57;;;9.40;99.90;;;;;;5107995;28;20078;-77
2021/10/17 04:37:00;;;;;;;27.45;11.10;;;9.40;99.90;;;;;;5107348;28;20044;-77
2021/10/17 04:39:26;;;;;;;22.27;11.10;;;9.40;99.90;;;;;;5091326;28;20055;-77
2021/10/17 04:41:52;;;;;;;25.98;9.90;;;9.40;99.90;;;;;;5108223;28;20044;-76
2021/10/17 04:44:17;;;;;;;27.23;10.48;;;9.40;99.90;;;;;;5104238;28;20052;-77
2021/10/17 04:46:43;;;;;;;18.48;9.50;;;9.40;99.90;;;;;;5106998;28;20047;-77
2021/10/17 04:49:09;;;;;;;24.75;10.25;;;9.40;99.90;;;;;;5104261;28;20112;-77
2021/10/17 04:51:34;;;;;;;23.80;9.70;;;9.40;99.90;;;;;;5106477;28;20058;-77
2021/10/17 04:54:00;;;;;;;29.23;9.88;;;9.40;99.90;;;;;;5106314;28;20039;-78
2021/10/17 04:56:26;;;;;;;22.20;8.98;;;9.40;99.90;;;;;;5089424;28;20493;-78
2021/10/17 04:58:52;;;;;;;23.15;9.73;;;9.40;99.90;;;;;;5089278;28;20104;-78
2021/10/17 05:01:18;;;;;;;24.60;9.23;;;9.40;99.90;;;;;;5104529;28;20055;-78
2021/10/17 05:03:43;;;;;;;21.00;8.90;;;9.40;99.90;;;;;;5106673;28;20086;-78
2021/10/17 05:06:12;;;;;;;23.75;9.32;;;9.40;99.90;;;;;;5087382;28;20766;-78
2021/10/17 05:08:38;;;;;;;23.88;8.85;;;9.40;99.90;;;;;;5105627;28;20099;-78
2021/10/17 05:11:04;;;;;;;21.25;8.15;;;9.40;99.90;;;;;;5089600;28;20052;-78
2021/10/17 05:13:30;;;;;;;18.00;8.02;;;9.40;99.90;;;;;;5106369;28;20063;-78
2021/10/17 05:15:56;;;;;;;23.10;8.75;;;9.40;99.90;;;;;;5106719;28;20075;-78
2021/10/17 05:18:21;;;;;;;28.15;8.48;;;9.40;99.90;;;;;;5104834;28;20093;-78
2021/10/17 05:20:47;;;;;;;21.25;7.30;;;9.40;99.90;;;;;;5105960;28;20566;-77
2021/10/17 05:23:14;;;;;;;23.58;9.02;;;9.40;99.90;;;;;;5086483;28;20043;-77
2021/10/17 05:25:40;;;;;;;24.40;8.35;;;9.40;99.90;;;;;;5106040;28;20051;-77
2021/10/17 05:28:06;;;;;;;17.45;7.07;;;9.40;99.90;;;;;;5103477;28;20050;-77
2021/10/17 05:30:33;;;;;;;18.42;7.80;;;9.40;99.90;;;;;;5106349;28;20048;-77
2021/10/17 05:33:00;;;;;;;20.92;7.45;;;9.40;99.90;;;;;;5106086;28;20557;-77
2021/10/17 05:35:26;;;;;;;22.33;8.02;;;9.40;99.90;;;;;;5121911;27;20047;-78
2021/10/17 05:37:52;;;;;;;16.48;7.32;;;9.40;99.90;;;;;;5105356;28;20047;-78
2021/10/17 05:40:18;;;;;;;17.80;6.57;;;9.40;99.90;;;;;;5103682;28;20088;-78
2021/10/17 05:42:44;;;;;;;20.70;7.43;;;9.40;99.90;;;;;;5106186;28;20051;-78
2021/10/17 05:45:10;;;;;;;18.08;7.18;;;9.40;99.90;;;;;;5089326;28;20481;-77
2021/10/17 05:47:36;;;;;;;18.08;6.32;;;9.40;99.90;;;;;;5106230;28;20126;-78
2021/10/17 05:50:02;;;;;;;23.27;7.25;;;9.40;99.90;;;;;;5087091;28;20428;-77
2021/10/17 05:52:28;;;;;;;16.92;6.95;;;9.40;99.90;;;;;;5105453;28;20035;-78
2021/10/17 05:54:54;;;;;;;20.15;6.68;;;9.40;99.90;;;;;;5104649;28;20566;-78
2021/10/17 05:57:19;;;;;;;20.30;7.18;;;9.40;99.90;;;;;;5087134;28;20039;-78
2021/10/17 05:59:45;;;;;;;21.50;7.90;;;9.40;99.90;;;;;;5105791;28;20097;-78
2021/10/17 06:02:11;;;;;;;24.75;6.47;;;9.40;99.90;;;;;;5120264;28;20040;-78
2021/10/17 06:04:37;;;;;;;18.98;7.00;;;9.40;99.90;;;;;;5105957;28;20055;-78
2021/10/17 06:07:03;;;;;;;15.55;6.47;;;9.50;99.90;;;;;;5104105;28;20058;-77
2021/10/17 06:09:34;;;;;;;19.15;6.63;;;9.50;99.90;;;;;;5098698;28;20060;-78
2021/10/17 06:12:01;;;;;;;18.50;6.57;;;9.50;99.90;;;;;;5096730;28;20082;-78
2021/10/17 06:14:27;;;;;;;28.88;6.90;;;9.50;99.90;;;;;;5104394;28;20418;-78
2021/10/17 06:16:52;;;;;;;26.48;6.97;;;9.50;99.90;;;;;;5105724;28;20051;-78
2021/10/17 06:19:18;;;;;;;21.98;6.72;;;9.50;99.90;;;;;;5103162;28;20135;-78
2021/10/17 06:21:44;;;;;;;19.40;6.40;;;9.50;99.90;;;;;;5096251;28;20048;-78
2021/10/17 06:24:09;;;;;;;23.13;6.72;;;9.60;99.90;;;;;;5100151;28;20047;-78
2021/10/17 06:26:35;;;;;;;17.40;6.38;;;9.60;99.90;;;;;;5105522;28;20406;-78
2021/10/17 06:29:01;;;;;;;23.13;6.57;;;9.60;99.90;;;;;;5103752;28;20054;-78
2021/10/17 06:31:26;;;;;;;15.70;6.45;;;9.60;99.90;;;;;;5107966;28;20040;-78
2021/10/17 06:33:52;;;;;;;16.00;6.85;;;9.60;99.90;;;;;;5109154;28;20139;-78
2021/10/17 06:36:18;;;;;;;16.73;5.90;;;9.60;99.90;;;;;;5107441;28;20046;-78
2021/10/17 06:38:44;;;;;;;22.67;6.40;;;9.70;99.90;;;;;;5083430;28;20101;-78
2021/10/17 06:41:09;;;;;;;19.30;6.10;;;9.70;99.90;;;;;;5100995;28;20508;-78
2021/10/17 06:43:35;;;;;;;23.33;6.68;;;9.70;99.90;;;;;;5075564;28;20495;-78
2021/10/17 06:46:01;;;;;;;22.00;6.95;;;9.70;99.90;;;;;;5107266;28;20051;-78
2021/10/17 06:48:27;;;;;;;12.95;5.70;;;9.80;99.90;;;;;;5125375;27;20046;-77
2021/10/17 06:50:52;;;;;;;23.08;6.80;;;9.80;99.90;;;;;;5091312;28;20044;-78
2021/10/17 06:53:18;;;;;;;17.05;6.40;;;9.80;99.90;;;;;;5107439;28;20393;-78
2021/10/17 06:55:44;;;;;;;24.45;6.95;;;9.80;99.90;;;;;;5091669;28;20126;-78
2021/10/17 06:58:10;;;;;;;20.05;6.57;;;9.80;99.90;;;;;;5106940;28;20047;-78
2021/10/17 07:00:36;;;;;;;23.23;5.60;;;9.80;99.90;;;;;;5104308;28;20040;-78
2021/10/17 07:03:01;;;;;;;17.05;5.57;;;9.80;99.90;;;;;;5093274;28;20048;-78
2021/10/17 07:05:27;;;;;;;15.43;5.57;;;9.90;99.90;;;;;;5087535;28;20652;-77
2021/10/17 07:07:53;;;;;;;19.60;5.50;;;9.90;99.90;;;;;;5105529;27;20403;-77
2021/10/17 07:10:18;;;;;;;15.95;6.00;;;9.90;99.90;;;;;;5090148;28;20056;-78
2021/10/17 07:12:44;;;;;;;20.02;5.57;;;9.90;99.90;;;;;;5088733;28;20056;-78
2021/10/17 07:15:10;;;;;;;14.77;5.60;;;9.90;99.90;;;;;;5087186;28;20066;-78
2021/10/17 07:17:36;;;;;;;17.05;5.90;;;9.90;99.90;;;;;;5089841;28;20449;-78
2021/10/17 07:20:03;;;;;;;24.52;7.07;;;9.90;99.90;;;;;;5120291;27;20493;-78
2021/10/17 07:22:30;;;;;;;14.05;5.97;;;9.90;99.90;;;;;;5098546;28;20047;-77
2021/10/17 07:24:55;;;;;;;14.50;5.53;;;9.90;99.90;;;;;;5086072;28;20396;-77
2021/10/17 07:27:21;;;;;;;18.98;6.15;;;9.90;99.90;;;;;;5087307;28;20711;-78
2021/10/17 07:29:47;;;;;;;18.98;6.18;;;10.00;99.90;;;;;;5086608;28;20052;-77
2021/10/17 07:32:13;;;;;;;24.00;6.10;;;10.00;99.90;;;;;;5088088;28;20078;-78
2021/10/17 07:34:39;;;;;;;13.98;5.60;;;10.00;99.90;;;;;;5089069;28;20048;-78
2021/10/17 07:37:04;;;;;;;16.23;6.97;;;10.00;99.90;;;;;;5089890;28;20078;-78
2021/10/17 07:39:30;;;;;;;17.92;5.68;;;10.00;99.90;;;;;;5104276;28;20060;-78
2021/10/17 07:41:56;;;;;;;11.27;5.78;;;10.00;99.90;;;;;;5084620;28;20050;-78
2021/10/17 07:44:23;;;;;;;18.23;5.90;;;10.00;99.90;;;;;;5087337;28;20048;-78
2021/10/17 07:46:48;;;;;;;18.13;5.82;;;10.10;99.90;;;;;;5085825;28;20040;-78
2021/10/17 07:49:14;;;;;;;19.15;6.57;;;10.10;99.90;;;;;;5097079;28;20088;-78
2021/10/17 07:51:40;;;;;;;12.15;5.50;;;10.20;99.90;;;;;;5102379;28;20055;-78
2021/10/17 07:54:08;;;;;;;16.85;5.70;;;10.20;99.90;;;;;;5086515;28;20043;-78
2021/10/17 07:56:34;;;;;;;14.80;5.65;;;10.20;99.90;;;;;;5070080;28;20051;-79
2021/10/17 07:59:00;;;;;;;18.33;6.43;;;10.20;99.90;;;;;;5085953;28;20048;-79
2021/10/17 08:01:25;;;;;;;18.83;6.28;;;10.20;99.90;;;;;;5092790;28;20581;-79
2021/10/17 08:03:51;;;;;;;15.27;6.05;;;10.20;99.90;;;;;;5087279;27;20591;-79
2021/10/17 08:06:17;;;;;;;18.00;6.47;;;10.20;99.90;;;;;;5090269;28;20050;-78
2021/10/17 08:08:43;;;;;;;18.95;6.10;;;10.30;99.90;;;;;;5088286;28;20386;-79
2021/10/17 08:11:08;;;;;;;17.10;6.07;;;10.30;99.90;;;;;;5091928;28;20505;-79
2021/10/17 08:13:34;;;;;;;17.17;6.32;;;10.20;99.90;;;;;;5107007;28;20180;-79
2021/10/17 08:16:00;;;;;;;18.15;6.53;;;10.30;99.90;;;;;;5105747;28;20051;-79
2021/10/17 08:18:26;;;;;;;25.08;6.32;;;10.30;99.90;;;;;;5098574;28;20031;-79
2021/10/17 08:20:53;;;;;;;18.98;6.07;;;10.30;99.90;;;;;;5097731;28;20066;-79
2021/10/17 08:23:19;;;;;;;18.23;5.65;;;10.30;99.90;;;;;;5099272;27;20047;-79
2021/10/17 08:25:45;;;;;;;14.63;5.85;;;10.30;99.90;;;;;;5095968;28;20048;-79
2021/10/17 08:28:11;;;;;;;18.05;5.75;;;10.30;99.90;;;;;;5097862;28;20039;-79
2021/10/17 08:30:37;;;;;;;20.63;7.30;;;10.40;99.90;;;;;;5101687;28;20043;-79
2021/10/17 08:33:03;;;;;;;13.93;6.18;;;10.40;99.90;;;;;;5101706;27;20048;-79
2021/10/17 08:35:29;;;;;;;16.98;6.10;;;10.40;99.90;;;;;;5081831;28;20138;-79
2021/10/17 08:37:54;;;;;;;16.50;5.85;;;10.50;99.90;;;;;;5082610;28;20489;-78
2021/10/17 08:40:20;;;;;;;28.10;6.35;;;10.40;99.90;;;;;;5102407;28;20043;-79
2021/10/17 08:42:46;;;;;;;25.63;6.47;;;10.50;99.90;;;;;;5065329;28;20096;-79
2021/10/17 08:45:12;;;;;;;17.05;5.63;;;10.50;99.90;;;;;;5083714;28;20036;-78
2021/10/17 08:47:38;;;;;;;21.67;6.35;;;10.60;99.90;;;;;;5105067;27;20036;-79
2021/10/17 08:50:06;;;;;;;14.73;6.15;;;10.60;99.90;;;;;;5086596;28;20063;-79
2021/10/17 08:52:32;;;;;;;17.90;6.03;;;10.60;99.90;;;;;;5085114;28;20036;-79
2021/10/17 08:54:58;;;;;;;15.98;5.80;;;10.60;99.90;;;;;;5101930;28;20055;-78
2021/10/17 08:57:23;;;;;;;13.85;5.68;;;10.60;99.90;;;;;;5085579;28;20140;-78
2021/10/17 08:59:51;;;;;;;22.30;6.97;;;10.70;99.90;;;;;;5084642;28;20086;-78
2021/10/17 09:02:20;;;;;;;16.15;6.93;;;10.70;99.90;;;;;;5094503;28;20036;-78
2021/10/17 09:05:01;;;;;;;16.45;6.22;;;10.70;99.90;;;;;;5090637;28;20122;-78
2021/10/17 09:07:27;;;;;;;15.95;6.22;;;10.80;99.90;;;;;;5097805;28;20457;-77
2021/10/17 09:10:11;;;;;;;14.95;5.65;;;10.90;99.90;;;;;;5096301;27;20070;-77
2021/10/17 09:12:39;;;;;;;19.25;6.78;;;10.90;99.90;;;;;;5101860;28;20078;-77
2021/10/17 09:15:28;;;;;;;16.45;5.93;;;10.90;99.90;;;;;;5097973;28;20660;-78
2021/10/17 09:18:07;;;;;;;18.17;6.35;;;10.90;99.90;;;;;;5084582;28;20047;-77
2021/10/17 09:20:35;;;;;;;15.93;5.60;;;10.90;99.90;;;;;;5085280;28;20063;-77
2021/10/17 09:23:04;;;;;;;19.20;6.72;;;10.90;99.90;;;;;;5102390;28;20502;-77
2021/10/17 09:25:36;;;;;;;16.92;6.72;;;10.90;99.90;;;;;;5089515;28;20401;-78
2021/10/17 09:28:17;;;;;;;24.88;6.05;;;11.00;99.90;;;;;;5079271;28;20044;-77
2021/10/17 09:30:55;;;;;;;18.38;5.95;;;11.00;99.90;;;;;;5098756;28;20255;-77
2021/10/17 09:33:21;;;;;;;14.85;6.50;;;11.00;99.90;;;;;;5086048;28;20031;-77
2021/10/17 09:35:47;;;;;;;19.77;6.43;;;11.00;99.90;;;;;;5101960;28;20043;-77
2021/10/17 09:38:15;;;;;;;15.20;5.95;;;11.00;99.90;;;;;;5093754;28;20044;-77
2021/10/17 09:40:43;;;;;;;20.30;6.45;;;11.10;99.90;;;;;;5090868;28;20540;-77
2021/10/17 09:43:26;;;;;;;18.67;5.65;;;11.10;99.90;;;;;;5090031;28;20048;-78
2021/10/17 09:46:10;;;;;;;15.02;5.45;;;11.20;99.90;;;;;;5068843;28;20105;-78
2021/10/17 09:48:36;;;;;;;20.35;6.18;;;11.20;99.90;;;;;;5084365;28;20593;-78
2021/10/17 09:51:03;;;;;;;15.80;6.40;;;11.30;99.90;;;;;;5085181;28;20051;-78
2021/10/17 09:53:47;;;;;;;14.90;6.05;;;11.30;99.90;;;;;;5087538;28;20036;-78
2021/10/17 09:56:29;;;;;;;14.77;5.97;;;11.40;99.90;;;;;;5101352;28;20039;-78
2021/10/17 09:59:04;;;;;;;16.40;6.20;;;11.40;99.90;;;;;;5068962;28;20044;-78
2021/10/17 10:01:30;;;;;;;19.02;6.13;;;11.40;99.90;;;;;;5080204;28;20044;-78
2021/10/17 10:03:59;;;;;;;18.38;6.38;;;11.40;99.90;;;;;;5108751;28;20040;-78
2021/10/17 10:06:26;;;;;;;18.25;5.50;;;11.50;99.90;;;;;;5084785;28;20076;-78
2021/10/17 10:08:58;;;;;;;16.63;6.15;;;11.50;99.90;;;;;;5100252;28;20063;-77
2021/10/17 10:11:26;;;;;;;17.13;5.70;;;11.50;99.90;;;;;;5095332;28;20044;-78
2021/10/17 10:13:57;;;;;;;18.05;6.72;;;11.50;99.90;;;;;;5104107;28;20379;-78
2021/10/17 10:16:25;;;;;;;16.08;5.90;;;11.60;99.90;;;;;;5087185;28;20044;-78
2021/10/17 10:19:05;;;;;;;16.25;5.93;;;11.60;99.90;;;;;;5073217;28;20048;-78
2021/10/17 10:21:32;;;;;;;16.08;6.00;;;11.60;99.90;;;;;;5103378;28;20044;-78
2021/10/17 10:24:04;;;;;;;22.15;7.15;;;11.70;99.90;;;;;;5090187;28;20036;-78
2021/10/17 10:26:31;;;;;;;12.70;5.82;;;11.70;99.90;;;;;;5097278;28;20055;-78
2021/10/17 10:28:58;;;;;;;20.60;6.53;;;11.80;99.90;;;;;;5097494;28;20040;-78
2021/10/17 10:31:57;;;;;;;20.75;6.35;;;11.80;99.90;;;;;;5084576;28;20035;-78
2021/10/17 10:34:22;;;;;;;23.75;6.30;;;11.80;99.90;;;;;;5076424;28;20060;-78
2021/10/17 10:36:54;;;;;;;18.92;6.50;;;11.90;99.90;;;;;;5096540;28;20036;-78
2021/10/17 10:39:24;;;;;;;17.20;5.35;;;11.80;99.90;;;;;;5106118;28;20126;-78
2021/10/17 10:41:50;;;;;;;;;;;11.90;99.90;;;;;;5099433;27;20044;-78
2021/10/17 10:44:40;;;;;;;14.32;6.05;;;11.90;99.90;;;;;;5092518;28;20335;-78
2021/10/17 10:47:25;;;;;;;18.15;7.05;;;12.00;99.90;;;;;;5089226;28;20485;-78
2021/10/17 10:49:53;;;;;;;15.45;5.80;;;12.00;99.90;;;;;;5081867;28;20544;-78
2021/10/17 10:52:24;;;;;;;16.55;6.30;;;12.00;99.90;;;;;;5104143;28;20027;-78
2021/10/17 10:54:51;;;;;;;14.48;5.88;;;12.00;99.90;;;;;;5096978;28;20048;-78
2021/10/17 10:57:25;;;;;;;15.65;5.35;;;12.00;99.90;;;;;;5096424;28;20044;-78
2021/10/17 11:00:05;;;;;;;15.85;6.03;;;12.10;99.90;;;;;;5080286;28;20571;-78
2021/10/17 11:02:31;;;;;;;19.40;7.25;;;12.10;99.90;;;;;;5105479;28;20051;-78
2021/10/17 11:04:59;;;;;;;20.02;6.18;;;12.10;99.90;;;;;;5095969;28;20051;-78
2021/10/17 11:07:39;;;;;;;19.98;5.40;;;12.10;99.90;;;;;;5095344;28;20549;-78
2021/10/17 11:10:25;;;;;;;;;;;12.20;99.90;;;;;;5086870;28;20055;-78
2021/10/17 11:12:59;;;;;;;19.63;5.63;;;12.20;99.90;;;;;;5089025;28;19923;-77
2021/10/17 11:15:33;;;;;;;18.30;5.90;;;12.20;99.90;;;;;;5090782;28;20036;-78
2021/10/17 11:18:00;;;;;;;14.40;5.45;;;12.20;99.90;;;;;;5103013;28;20489;-78
2021/10/17 11:20:38;;;;;;;20.10;5.28;;;12.20;99.90;;;;;;5081627;28;20123;-78
2021/10/17 11:23:06;;;;;;;16.25;5.57;;;12.20;99.90;;;;;;5069708;28;20036;-78
2021/10/17 11:25:32;;;;;;;20.88;6.30;;;12.30;99.90;;;;;;5087717;28;20036;-78
2021/10/17 11:27:59;;;;;;;10.65;4.90;;;12.30;99.90;;;;;;5095346;28;20036;-78
2021/10/17 11:30:35;;;;;;;12.13;5.10;;;12.40;99.90;;;;;;5088110;28;20036;-78
2021/10/17 11:33:04;;;;;;;16.63;5.65;;;12.50;99.90;;;;;;5082754;28;20040;-78
2021/10/17 11:35:35;;;;;;;19.80;5.88;;;12.50;99.90;;;;;;5094765;28;20086;-78
2021/10/17 11:38:05;;;;;;;12.40;5.18;;;12.60;99.90;;;;;;5097082;28;20106;-78
2021/10/17 11:40:34;;;;;;;12.00;5.00;;;12.70;99.90;;;;;;5086632;28;20032;-78
2021/10/17 11:43:07;;;;;;;15.75;5.22;;;12.70;99.90;;;;;;5089171;28;20540;-78
2021/10/17 11:45:39;;;;;;;12.85;5.22;;;12.80;99.90;;;;;;5078292;28;20036;-78
2021/10/17 11:48:08;;;;;;;16.15;5.95;;;12.90;99.90;;;;;;5087766;28;20115;-78
2021/10/17 11:50:43;;;;;;;18.55;4.93;;;12.90;99.90;;;;;;5086531;28;20517;-78
2021/10/17 11:53:11;;;;;;;17.83;5.28;;;12.90;99.90;;;;;;5085903;28;20040;-78
2021/10/17 11:55:48;;;;;;;19.85;5.50;;;13.00;99.90;;;;;;5093201;28;20414;-78
2021/10/17 11:58:20;;;;;;;15.45;4.75;;;13.00;99.90;;;;;;5095572;28;20071;-78
2021/10/17 12:00:48;;;;;;;16.70;4.93;;;13.00;99.90;;;;;;5084241;28;20394;-78
2021/10/17 12:03:17;;;;;;;17.23;5.40;;;13.10;99.90;;;;;;5075210;28;20078;-79
2021/10/17 12:05:44;;;;;;;11.90;4.10;;;13.20;99.90;;;;;;5073575;28;20438;-78
2021/10/17 12:08:36;;;;;;;14.00;4.60;;;13.20;99.90;;;;;;5092470;28;20032;-78
2021/10/17 12:11:03;;;;;;;10.60;4.90;;;13.30;99.90;;;;;;5075648;28;20508;-78
2021/10/17 12:13:46;;;;;;;14.15;4.70;;;13.30;99.90;;;;;;5106230;28;20040;-79
2021/10/17 12:16:23;;;;;;;16.58;4.88;;;13.40;99.90;;;;;;5106809;28;20043;-78
2021/10/17 12:19:02;;;;;;;17.48;4.80;;;13.40;99.90;;;;;;5122991;27;20459;-79
2021/10/17 12:21:31;;;;;;;16.08;4.75;;;13.40;99.90;;;;;;5104890;28;20058;-78
2021/10/17 12:23:58;;;;;;;10.40;4.13;;;13.40;99.90;;;;;;5092930;28;20048;-79
2021/10/17 12:26:31;;;;;;;9.18;4.50;;;13.50;99.90;;;;;;5093136;28;20048;-79
2021/10/17 12:29:15;;;;;;;10.15;4.20;;;13.50;99.90;;;;;;5092734;28;20047;-79
2021/10/17 12:31:45;;;;;;;7.18;3.75;;;13.50;99.90;;;;;;5097515;28;20075;-79
2021/10/17 12:34:12;;;;;;;18.92;4.82;;;13.50;99.90;;;;;;5091495;28;20059;-79
2021/10/17 12:36:40;;;;;;;13.38;3.97;;;13.50;99.90;;;;;;5102130;28;20101;-78
2021/10/17 12:39:14;;;;;;;16.42;4.53;;;13.40;99.90;;;;;;5081178;28;20424;-79
2021/10/17 12:41:41;;;;;;;9.48;4.28;;;13.50;99.90;;;;;;5088722;28;20055;-78
2021/10/17 12:44:12;;;;;;;13.02;4.38;;;13.50;99.90;;;;;;5084394;28;20043;-79